createdAt,value
2022-08-05T00:00:16.285Z,3.85
2022-08-05T00:02:50.953Z,3.75
2022-08-05T00:06:02.555Z,3.40
2022-08-05T00:08:07.177Z,3.45
2022-08-05T00:10:54.063Z,3.72
2022-08-05T00:13:21.413Z,3.67
2022-08-05T00:16:09.190Z,3.70
2022-08-05T00:18:38.669Z,3.50
2022-08-05T00:21:06.767Z,3.47
2022-08-05T00:23:45.682Z,3.97
2022-08-05T00:26:14.041Z,3.55
2022-08-05T00:28:45.867Z,4.22
2022-08-05T00:31:13.342Z,3.92
2022-08-05T00:34:53.546Z,3.88
2022-08-05T00:37:12.889Z,4.43
2022-08-05T00:39:15.097Z,3.55
2022-08-05T00:41:55.211Z,3.83
2022-08-05T00:44:30.817Z,3.10
2022-08-05T00:47:02.245Z,3.38
2022-08-05T00:49:51.033Z,3.40
2022-08-05T00:52:28.215Z,3.05
2022-08-05T00:54:56.406Z,3.40
2022-08-05T00:57:24.245Z,3.05
2022-08-05T00:59:53.164Z,2.72
2022-08-05T01:02:20.465Z,3.10
2022-08-05T01:04:51.639Z,3.35
2022-08-05T01:07:18.972Z,3.67
2022-08-05T01:09:46.353Z,3.40
2022-08-05T01:12:23.009Z,3.15
2022-08-05T01:14:58.749Z,3.30
2022-08-05T01:17:31.140Z,3.33
2022-08-05T01:20:27.076Z,4.00
2022-08-05T01:23:14.311Z,3.70
2022-08-05T01:25:53.519Z,3.20
2022-08-05T01:28:28.114Z,3.33
2022-08-05T01:31:03.184Z,3.22
2022-08-05T01:33:35.310Z,3.30
2022-08-05T01:36:05.372Z,4.55
2022-08-05T01:38:40.763Z,2.95
2022-08-05T01:41:08.665Z,3.15
2022-08-05T01:46:07.242Z,3.25
2022-08-05T01:48:44.970Z,3.20
2022-08-05T01:51:18.491Z,3.17
2022-08-05T01:53:57.200Z,3.00
2022-08-05T01:58:09.565Z,2.83
2022-08-05T01:59:17.281Z,2.92
2022-08-05T02:01:46.930Z,2.97
2022-08-05T02:04:17.894Z,3.22
2022-08-05T02:06:45.255Z,4.30
2022-08-05T02:09:14.733Z,3.22
2022-08-05T02:12:04.028Z,3.03
2022-08-05T02:14:38.200Z,3.25
2022-08-05T02:17:07.540Z,3.00
2022-08-05T02:22:25.382Z,3.45
2022-08-05T02:24:56.491Z,3.90
2022-08-05T02:27:29.860Z,3.40
2022-08-05T02:30:14.912Z,3.45
2022-08-05T02:32:44.104Z,4.15
2022-08-05T02:35:13.674Z,3.53
2022-08-05T02:37:47.670Z,3.25
2022-08-05T02:40:19.430Z,3.03
2022-08-05T02:42:52.999Z,3.92
2022-08-05T02:45:24.248Z,3.42
2022-08-05T02:48:07.567Z,3.30
2022-08-05T02:50:47.063Z,3.30
2022-08-05T02:53:19.327Z,3.45
2022-08-05T02:55:59.614Z,3.78
2022-08-05T02:58:28.762Z,3.20
2022-08-05T03:00:57.955Z,3.50
2022-08-05T03:03:26.094Z,3.17
2022-08-05T03:06:53.943Z,3.60
2022-08-05T03:08:42.669Z,3.47
2022-08-05T03:11:54.823Z,3.40
2022-08-05T03:14:08.164Z,3.20
2022-08-05T03:16:35.925Z,3.47
2022-08-05T03:19:12.655Z,3.22
2022-08-05T03:21:48.856Z,3.40
2022-08-05T03:24:18.149Z,3.00
2022-08-05T03:26:57.081Z,2.80
2022-08-05T03:29:24.636Z,3.30
2022-08-05T03:32:12.183Z,4.20
2022-08-05T03:34:42.354Z,3.08
2022-08-05T03:37:18.596Z,3.78
2022-08-05T03:40:00.993Z,2.72
2022-08-05T03:42:32.811Z,2.80
2022-08-05T03:45:22.814Z,3.10
2022-08-05T03:47:51.452Z,2.88
2022-08-05T03:50:18.903Z,2.90
2022-08-05T03:55:06.709Z,2.95
2022-08-05T03:56:12.162Z,3.10
2022-08-05T03:58:46.469Z,3.28
2022-08-05T04:01:15.418Z,3.27
2022-08-05T04:04:09.132Z,2.60
2022-08-05T04:06:37.504Z,3.15
2022-08-05T04:09:08.744Z,2.88
2022-08-05T04:11:47.277Z,3.17
2022-08-05T04:14:19.144Z,2.95
2022-08-05T04:16:56.877Z,2.88
2022-08-05T04:19:24.137Z,2.60
2022-08-05T04:22:09.783Z,2.65
2022-08-05T04:24:44.360Z,2.97
2022-08-05T04:27:13.406Z,2.63
2022-08-05T04:29:41.435Z,2.65
2022-08-05T04:32:09.449Z,2.80
2022-08-05T04:34:42.668Z,2.80
2022-08-05T04:37:10.934Z,2.58
2022-08-05T04:39:39.248Z,3.30
2022-08-05T04:42:07.584Z,3.00
2022-08-05T04:44:36.451Z,3.47
2022-08-05T04:47:09.170Z,3.05
2022-08-05T04:50:01.051Z,3.08
2022-08-05T04:52:24.531Z,3.22
2022-08-05T04:54:57.343Z,2.85
2022-08-05T04:57:29.071Z,3.10
2022-08-05T04:59:58.534Z,3.28
2022-08-05T05:02:36.998Z,3.08
2022-08-05T05:05:26.509Z,2.85
2022-08-05T05:07:56.479Z,3.63
2022-08-05T05:10:28.782Z,3.42
2022-08-05T05:12:57.429Z,3.22
2022-08-05T05:15:56.211Z,3.30
2022-08-05T05:18:14.879Z,3.20
2022-08-05T05:20:55.810Z,3.10
2022-08-05T05:23:25.819Z,3.50
2022-08-05T05:25:53.142Z,3.00
2022-08-05T05:28:20.820Z,3.22
2022-08-05T05:30:49.529Z,3.83
2022-08-05T05:33:17.860Z,3.58
2022-08-05T05:35:50.912Z,2.75
2022-08-05T05:38:22.671Z,2.83
2022-08-05T05:40:55.835Z,2.55
2022-08-05T05:43:57.477Z,2.63
2022-08-05T05:46:17.579Z,2.45
2022-08-05T05:48:47.869Z,2.72
2022-08-05T05:51:19.612Z,2.67
2022-08-05T05:53:57.865Z,3.10
2022-08-05T05:56:32.846Z,2.42
2022-08-05T05:59:06.433Z,2.17
2022-08-05T06:01:39.580Z,2.30
2022-08-05T06:04:08.258Z,2.28
2022-08-05T06:06:39.129Z,1.90
2022-08-05T06:09:09.210Z,2.20
2022-08-05T06:11:59.225Z,2.38
2022-08-05T06:14:29.496Z,2.25
2022-08-05T06:16:57.950Z,2.13
2022-08-05T06:19:26.026Z,1.92
2022-08-05T06:22:01.644Z,1.77
2022-08-05T06:24:28.915Z,1.70
2022-08-05T06:26:56.329Z,1.98
2022-08-05T06:29:49.502Z,1.30
2022-08-05T06:32:20.972Z,1.80
2022-08-05T06:34:53.410Z,1.83
2022-08-05T06:37:56.461Z,1.58
2022-08-05T06:40:08.839Z,1.60
2022-08-05T06:42:36.057Z,2.67
2022-08-05T06:45:08.619Z,1.88
2022-08-05T06:50:23.734Z,1.80
2022-08-05T06:52:58.736Z,1.88
2022-08-05T06:55:36.332Z,1.55
2022-08-05T06:58:29.089Z,1.20
2022-08-05T07:00:51.692Z,0.95
2022-08-05T07:03:19.024Z,1.45
2022-08-05T07:05:46.594Z,1.40
2022-08-05T07:08:14.235Z,1.30
2022-08-05T07:10:52.941Z,1.90
2022-08-05T07:13:57.648Z,1.30
2022-08-05T07:18:01.836Z,1.23
2022-08-05T07:22:28.747Z,1.10
2022-08-05T07:24:58.675Z,1.10
2022-08-05T07:27:27.519Z,1.00
2022-08-05T07:30:27.435Z,1.35
2022-08-05T07:32:57.905Z,1.10
2022-08-05T07:36:01.694Z,1.35
2022-08-05T07:38:33.041Z,1.20
2022-08-05T07:41:04.462Z,1.08
2022-08-05T07:43:47.658Z,1.00
2022-08-05T07:46:24.384Z,0.80
2022-08-05T07:49:02.247Z,0.80
2022-08-05T07:51:36.663Z,1.00
2022-08-05T07:54:05.196Z,0.90
2022-08-05T07:57:00.323Z,0.88
2022-08-05T07:59:23.235Z,0.70
2022-08-05T08:01:58.743Z,0.95
2022-08-05T08:04:37.522Z,0.75
2022-08-05T08:07:07.098Z,0.82
2022-08-05T08:09:34.573Z,0.93
2022-08-05T08:12:11.037Z,0.90
2022-08-05T08:14:46.708Z,0.90
2022-08-05T08:17:16.038Z,1.00
2022-08-05T08:20:20.995Z,0.90
2022-08-05T08:22:32.453Z,0.85
2022-08-05T08:25:02.754Z,0.88
2022-08-05T08:27:40.409Z,0.82
2022-08-05T08:30:29.672Z,0.90
2022-08-05T08:33:02.514Z,0.93
2022-08-05T08:35:34.996Z,0.80
2022-08-05T08:38:11.710Z,2.17
2022-08-05T08:40:50.427Z,0.70
2022-08-05T08:45:19.964Z,0.80
2022-08-05T08:46:10.056Z,1.15
2022-08-05T08:49:07.546Z,0.82
2022-08-05T08:52:03.337Z,0.80
2022-08-05T08:54:20.508Z,0.98
2022-08-05T08:56:49.523Z,0.80
2022-08-05T09:01:57.548Z,0.88
2022-08-05T09:04:30.658Z,0.70
2022-08-05T09:06:58.713Z,1.23
2022-08-05T09:09:34.708Z,0.70
2022-08-05T09:12:20.469Z,0.60
2022-08-05T09:14:59.350Z,0.70
2022-08-05T09:17:43.001Z,0.80
2022-08-05T09:20:21.029Z,0.70
2022-08-05T09:23:18.608Z,0.60
2022-08-05T09:26:06.664Z,0.50
2022-08-05T09:28:37.119Z,0.40
2022-08-05T09:31:43.327Z,0.57
2022-08-05T09:34:05.691Z,0.50
2022-08-05T09:36:54.569Z,0.40
2022-08-05T09:39:27.859Z,0.43
2022-08-05T09:42:13.612Z,0.60
2022-08-05T09:44:50.474Z,0.60
2022-08-05T09:47:20.559Z,0.40
2022-08-05T09:50:01.449Z,0.80
2022-08-05T09:52:34.627Z,0.65
2022-08-05T09:55:06.318Z,0.50
2022-08-05T09:57:54.356Z,0.32
2022-08-05T10:00:24.746Z,0.50
2022-08-05T10:05:24.474Z,0.43
2022-08-05T10:08:36.744Z,0.57
2022-08-05T10:10:45.607Z,0.57
2022-08-05T10:13:27.658Z,0.80
2022-08-05T10:16:32.228Z,0.50
2022-08-05T10:19:08.535Z,0.60
2022-08-05T10:21:40.945Z,0.30
2022-08-05T10:24:13.651Z,0.68
2022-08-05T10:26:49.131Z,0.60
2022-08-05T10:29:23.858Z,1.00
2022-08-05T10:32:54.508Z,0.70
2022-08-05T10:35:00.921Z,0.50
2022-08-05T10:37:40.123Z,0.95
2022-08-05T10:40:28.306Z,0.70
2022-08-05T10:42:59.242Z,0.35
2022-08-05T10:45:41.614Z,0.60
2022-08-05T10:48:31.079Z,0.52
2022-08-05T10:51:00.105Z,0.40
2022-08-05T10:53:38.439Z,0.70
2022-08-05T10:56:21.031Z,0.70
2022-08-05T10:59:12.137Z,0.75
2022-08-05T11:01:54.498Z,0.50
2022-08-05T11:04:31.703Z,0.57
2022-08-05T11:07:00.616Z,0.70
2022-08-05T11:09:45.385Z,0.60
2022-08-05T11:12:32.813Z,0.70
2022-08-05T11:15:19.376Z,0.57
2022-08-05T11:17:59.193Z,0.40
2022-08-05T11:20:32.631Z,1.00
2022-08-05T11:23:06.144Z,0.60
2022-08-05T11:26:04.452Z,0.52
2022-08-05T11:28:31.604Z,0.60
2022-08-05T11:31:05.921Z,0.60
2022-08-05T11:33:46.389Z,0.70
2022-08-05T11:36:34.025Z,0.85
2022-08-05T11:39:02.239Z,0.75
2022-08-05T11:41:58.231Z,0.77
2022-08-05T11:44:40.541Z,0.50
2022-08-05T11:47:10.488Z,0.60
2022-08-05T11:49:42.755Z,0.65
2022-08-05T11:52:11.958Z,0.63
2022-08-05T11:54:41.456Z,0.70
2022-08-05T11:57:25.479Z,0.90
2022-08-05T11:59:54.568Z,0.73
2022-08-05T12:02:30.057Z,0.70
2022-08-05T12:04:59.823Z,0.60
2022-08-05T12:08:03.636Z,0.80
2022-08-05T12:10:19.019Z,0.50
2022-08-05T12:12:59.597Z,0.60
2022-08-05T12:15:38.387Z,0.45
2022-08-05T12:18:10.481Z,0.95
2022-08-05T12:20:38.791Z,1.05
2022-08-05T12:23:10.014Z,0.65
2022-08-05T12:25:56.605Z,0.50
2022-08-05T12:28:37.855Z,0.90
2022-08-05T12:31:05.907Z,0.63
2022-08-05T12:33:37.065Z,0.50
2022-08-05T12:36:09.592Z,0.63
2022-08-05T12:38:39.738Z,0.40
2022-08-05T12:41:13.318Z,0.40
2022-08-05T12:43:58.110Z,0.63
2022-08-05T12:46:29.914Z,0.70
2022-08-05T12:49:05.865Z,0.35
2022-08-05T12:52:12.036Z,0.65
2022-08-05T12:54:37.186Z,0.65
2022-08-05T12:57:09.718Z,0.80
2022-08-05T13:01:56.824Z,1.08
2022-08-05T13:02:41.456Z,0.85
2022-08-05T13:05:12.736Z,0.47
2022-08-05T13:08:00.715Z,0.52
2022-08-05T13:10:28.807Z,0.63
2022-08-05T13:12:58.498Z,0.50
2022-08-05T13:15:42.252Z,0.40
2022-08-05T13:18:21.193Z,6.65
2022-08-05T13:20:51.236Z,3.30
2022-08-05T13:23:22.816Z,0.75
2022-08-05T13:25:58.958Z,0.52
2022-08-05T13:28:27.612Z,0.50
2022-08-05T13:30:55.326Z,0.60
2022-08-05T13:34:21.144Z,0.45
2022-08-05T13:36:14.382Z,0.50
2022-08-05T13:38:43.097Z,0.35
2022-08-05T13:41:11.588Z,0.50
2022-08-05T13:43:44.219Z,0.50
2022-08-05T13:46:13.521Z,0.73
2022-08-05T13:48:58.582Z,0.80
2022-08-05T13:51:40.993Z,0.95
2022-08-05T13:54:12.621Z,1.00
2022-08-05T13:56:45.513Z,0.70
2022-08-05T13:59:21.452Z,0.80
2022-08-05T14:01:56.463Z,0.60
2022-08-05T14:04:43.192Z,0.80
2022-08-05T14:07:56.884Z,0.57
2022-08-05T14:10:14.165Z,0.63
2022-08-05T14:12:48.490Z,0.73
2022-08-05T14:16:05.116Z,0.75
2022-08-05T14:18:04.313Z,0.65
2022-08-05T14:20:32.110Z,0.80
2022-08-05T14:23:00.154Z,0.60
2022-08-05T14:25:30.342Z,0.70
2022-08-05T14:27:58.596Z,0.82
2022-08-05T14:30:27.885Z,1.13
2022-08-05T14:32:56.883Z,1.10
2022-08-05T14:38:03.669Z,0.52
2022-08-05T14:40:31.709Z,0.52
2022-08-05T14:43:01.316Z,0.60
2022-08-05T14:45:28.542Z,0.70
2022-08-05T14:48:05.005Z,0.75
2022-08-05T14:50:36.137Z,0.70
2022-08-05T14:53:08.214Z,0.80
2022-08-05T14:55:39.557Z,1.00
2022-08-05T14:58:11.056Z,0.90
2022-08-05T15:00:58.448Z,0.82
2022-08-05T15:03:34.029Z,0.90
2022-08-05T15:06:07.891Z,0.90
2022-08-05T15:08:59.046Z,1.40
2022-08-05T15:11:51.308Z,0.88
2022-08-05T15:14:33.537Z,0.85
2022-08-05T15:17:03.738Z,0.70
2022-08-05T15:19:31.458Z,0.68
2022-08-05T15:22:01.030Z,0.77
2022-08-05T15:24:29.175Z,0.90
2022-08-05T15:26:57.100Z,0.88
2022-08-05T15:29:29.971Z,0.70
2022-08-05T15:32:03.160Z,0.80
2022-08-05T15:34:33.014Z,0.80
2022-08-05T15:37:06.263Z,1.17
2022-08-05T15:40:59.156Z,0.90
2022-08-05T15:42:54.770Z,0.90
2022-08-05T15:45:15.529Z,1.00
2022-08-05T15:47:44.347Z,0.90
2022-08-05T15:50:15.324Z,0.97
2022-08-05T15:52:52.783Z,0.98
2022-08-05T15:55:24.422Z,1.00
2022-08-05T15:57:52.660Z,1.15
2022-08-05T16:00:26.279Z,0.90
2022-08-05T16:03:07.674Z,0.80
2022-08-05T16:05:35.198Z,1.10
2022-08-05T16:08:06.312Z,0.90
2022-08-05T16:10:33.642Z,1.05
2022-08-05T16:13:00.947Z,1.40
2022-08-05T16:15:32.392Z,1.10
2022-08-05T16:18:00.061Z,1.13
2022-08-05T16:20:27.908Z,0.90
2022-08-05T16:22:55.494Z,1.30
2022-08-05T16:25:32.262Z,1.10
2022-08-05T16:28:05.971Z,1.67
2022-08-05T16:30:34.186Z,0.98
2022-08-05T16:33:03.455Z,1.00
2022-08-05T16:35:33.586Z,1.00
2022-08-05T16:38:23.760Z,0.98
2022-08-05T16:40:55.010Z,1.20
2022-08-05T16:43:24.046Z,1.42
2022-08-05T16:46:03.986Z,1.47
2022-08-05T16:48:36.396Z,1.30
2022-08-05T16:51:08.689Z,1.60
2022-08-05T16:54:02.428Z,0.82
2022-08-05T16:56:25.909Z,0.95
2022-08-05T16:58:53.227Z,1.20
2022-08-05T17:01:20.790Z,1.00
2022-08-05T17:03:48.144Z,0.95
2022-08-05T17:06:16.654Z,1.05
2022-08-05T17:08:52.750Z,1.63
2022-08-05T17:11:23.794Z,1.10
2022-08-05T17:14:00.601Z,1.25
2022-08-05T17:16:36.035Z,1.27
2022-08-05T17:19:07.006Z,1.42
2022-08-05T17:21:36.739Z,2.03
2022-08-05T17:24:20.495Z,1.10
2022-08-05T17:26:53.776Z,1.83
2022-08-05T17:29:33.588Z,1.35
2022-08-05T17:32:07.163Z,2.22
2022-08-05T17:34:35.760Z,1.17
2022-08-05T17:37:04.611Z,2.10
2022-08-05T17:39:55.093Z,1.75
2022-08-05T17:42:28.890Z,1.45
2022-08-05T17:44:57.547Z,1.45
2022-08-05T17:47:25.319Z,1.88
2022-08-05T17:50:03.892Z,1.80
2022-08-05T17:52:34.773Z,1.55
2022-08-05T17:55:21.233Z,1.20
2022-08-05T17:57:50.326Z,1.30
2022-08-05T18:00:18.523Z,1.77
2022-08-05T18:02:47.278Z,1.35
2022-08-05T18:05:16.737Z,1.33
2022-08-05T18:07:44.705Z,1.27
2022-08-05T18:10:14.166Z,1.00
2022-08-05T18:12:49.083Z,1.13
2022-08-05T18:15:16.428Z,1.00
2022-08-05T18:18:01.554Z,1.23
2022-08-05T18:20:32.044Z,1.40
2022-08-05T18:23:09.567Z,1.30
2022-08-05T18:25:39.891Z,0.98
2022-08-05T18:28:12.763Z,1.10
2022-08-05T18:30:47.508Z,1.35
2022-08-05T18:33:22.378Z,1.25
2022-08-05T18:36:03.911Z,1.13
2022-08-05T18:38:37.152Z,1.10
2022-08-05T18:41:56.161Z,1.23
2022-08-05T18:43:53.089Z,1.30
2022-08-05T18:46:20.665Z,1.27
2022-08-05T18:48:51.607Z,0.93
2022-08-05T18:52:05.877Z,1.30
2022-08-05T18:54:30.915Z,2.20
2022-08-05T18:59:43.058Z,1.40
2022-08-05T19:02:26.960Z,1.48
2022-08-05T19:05:02.586Z,1.20
2022-08-05T19:07:46.284Z,1.20
2022-08-05T19:10:14.878Z,1.50
2022-08-05T19:12:43.265Z,1.55
2022-08-05T19:15:57.626Z,1.20
2022-08-05T19:18:08.476Z,1.17
2022-08-05T19:20:41.314Z,1.33
2022-08-05T19:24:03.523Z,1.17
2022-08-05T19:26:02.186Z,1.75
2022-08-05T19:28:30.420Z,1.20
2022-08-05T19:30:59.168Z,1.20
2022-08-05T19:33:34.067Z,1.00
2022-08-05T19:36:06.397Z,2.42
2022-08-05T19:38:35.682Z,1.20
2022-08-05T19:41:06.999Z,1.30
2022-08-05T19:44:06.192Z,1.55
2022-08-05T19:46:30.668Z,1.10
2022-08-05T19:49:03.118Z,1.20
2022-08-05T19:52:05.975Z,1.38
2022-08-05T19:54:27.133Z,1.40
2022-08-05T19:56:59.389Z,1.40
2022-08-05T19:59:56.445Z,1.58
2022-08-05T20:02:15.078Z,1.60
2022-08-05T20:04:46.210Z,1.60
2022-08-05T20:07:15.693Z,1.30
2022-08-05T20:10:04.781Z,1.55
2022-08-05T20:12:32.407Z,1.77
2022-08-05T20:15:00.680Z,1.40
2022-08-05T20:17:29.084Z,1.40
2022-08-05T20:20:02.041Z,1.20
2022-08-05T20:22:31.622Z,1.70
2022-08-05T20:25:00.425Z,1.40
2022-08-05T20:27:41.604Z,1.75
2022-08-05T20:30:10.256Z,1.35
2022-08-05T20:32:37.505Z,1.70
2022-08-05T20:35:12.537Z,1.63
2022-08-05T20:38:06.307Z,1.75
2022-08-05T20:40:30.069Z,1.45
2022-08-05T20:43:00.331Z,1.67
2022-08-05T20:45:56.018Z,2.17
2022-08-05T20:48:16.561Z,1.70
2022-08-05T20:50:45.519Z,1.55
2022-08-05T20:53:15.987Z,1.55
2022-08-05T20:56:08.756Z,1.67
2022-08-05T20:58:37.011Z,2.30
2022-08-05T21:01:04.715Z,1.40
2022-08-05T21:03:34.669Z,1.85
2022-08-05T21:08:42.106Z,1.50
2022-08-05T21:11:12.582Z,1.77
2022-08-05T21:13:47.745Z,1.52
2022-08-05T21:16:23.325Z,2.05
2022-08-05T21:19:00.035Z,1.73
2022-08-05T21:21:39.585Z,1.58
2022-08-05T21:24:15.724Z,1.73
2022-08-05T21:26:47.178Z,1.75
2022-08-05T21:29:26.353Z,1.20
2022-08-05T21:31:58.929Z,1.67
2022-08-05T21:34:26.182Z,1.50
2022-08-05T21:39:26.785Z,1.85
2022-08-05T21:42:01.902Z,1.98
2022-08-05T21:44:29.560Z,2.25
2022-08-05T21:46:58.193Z,1.65
2022-08-05T21:49:58.858Z,2.60
2022-08-05T21:52:16.309Z,1.70
2022-08-05T21:54:51.267Z,1.83
2022-08-05T21:57:42.439Z,1.45
2022-08-05T22:00:11.649Z,1.50
2022-08-05T22:02:42.660Z,2.00
2022-08-05T22:05:10.486Z,2.80
2022-08-05T22:07:40.228Z,1.58
2022-08-05T22:10:27.025Z,1.52
2022-08-05T22:12:57.202Z,1.60
2022-08-05T22:16:02.755Z,1.70
2022-08-05T22:18:13.057Z,2.30
2022-08-05T22:20:42.016Z,1.80
2022-08-05T22:26:36.433Z,2.05
2022-08-05T22:29:04.316Z,1.48
2022-08-05T22:31:31.726Z,1.70
2022-08-05T22:34:12.930Z,1.67
2022-08-05T22:36:53.071Z,1.50
2022-08-05T22:39:21.514Z,2.35
2022-08-05T22:42:10.353Z,2.10
2022-08-05T22:44:36.219Z,1.80
2022-08-05T22:47:05.922Z,1.85
2022-08-05T22:50:20.046Z,1.70
2022-08-05T22:52:30.488Z,1.90
2022-08-05T22:55:01.971Z,1.90
2022-08-05T22:57:34.220Z,1.70
2022-08-05T23:00:05.059Z,1.60
2022-08-05T23:02:35.466Z,1.70
2022-08-05T23:05:14.520Z,1.88
2022-08-05T23:07:45.317Z,2.13
2022-08-05T23:10:20.836Z,1.75
2022-08-05T23:12:54.669Z,1.70
2022-08-05T23:15:29.124Z,2.20
2022-08-05T23:18:00.551Z,1.90
2022-08-05T23:20:30.172Z,1.85
2022-08-05T23:22:58.794Z,1.60
2022-08-05T23:25:52.145Z,2.53
2022-08-05T23:28:15.853Z,2.20
2022-08-05T23:30:53.623Z,1.70
2022-08-05T23:34:02.695Z,2.20
2022-08-05T23:36:10.668Z,1.70
2022-08-05T23:38:38.291Z,1.92
2022-08-05T23:41:05.767Z,2.00
2022-08-05T23:43:37.417Z,1.80
2022-08-05T23:46:21.991Z,3.05
2022-08-05T23:48:59.965Z,2.00
2022-08-05T23:51:54.256Z,2.00
2022-08-05T23:54:26.019Z,2.70
2022-08-05T23:56:54.107Z,2.17
2022-08-05T23:59:21.354Z,2.10
